Time;durP1;ratioP1;P1;durP2;ratioP2;P2;SDS_P1;SDS_P2;PMS_P1;PMS_P2;Temp;Humidity;BMP_temperature;BMP_pressure;BME280_temperature;BME280_humidity;BME280_pressure;Samples;Min_cycle;Max_cycle;Signal;HPM_P1;HPM_P2
2022/03/15 00:02:12;;;;;;;13.15;7.05;;;;;;;;;;5054727;28;20017;-66
2022/03/15 00:04:39;;;;;;;13.90;6.90;;;;;;;;;;5054246;28;20024;-69
2022/03/15 00:07:05;;;;;;;14.60;6.38;;;;;;;;;;5053814;28;20123;-69
2022/03/15 00:09:31;;;;;;;13.43;6.82;;;;;;;;;;5054827;28;20506;-70
2022/03/15 00:11:57;;;;;;;13.20;6.68;;;;;;;;;;5053854;28;20021;-69
2022/03/15 00:14:23;;;;;;;11.50;6.22;;;;;;;;;;5069723;28;20598;-64
2022/03/15 00:16:49;;;;;;;11.73;6.88;;;;;;;;;;5053039;28;20037;-69
2022/03/15 00:19:15;;;;;;;13.18;6.78;;;;;;;;;;5054306;28;20012;-64
2022/03/15 00:21:42;;;;;;;12.75;6.75;;;;;;;;;;5053697;28;20155;-67
2022/03/15 00:24:08;;;;;;;12.40;6.68;;;;;;;;;;5052672;28;20016;-67
2022/03/15 00:26:35;;;;;;;13.98;7.30;;;;;;;;;;5054523;28;20484;-63
2022/03/15 00:29:01;;;;;;;13.63;6.63;;;;;;;;;;5054334;28;20099;-63
2022/03/15 00:31:27;;;;;;;13.68;6.25;;;;;;;;;;5054535;28;20120;-64
2022/03/15 00:33:53;;;;;;;11.70;5.95;;;;;;;;;;5054432;28;20108;-62
2022/03/15 00:36:20;;;;;;;10.38;6.63;;;;;;;;;;5054293;28;20086;-62
2022/03/15 00:38:46;;;;;;;11.98;6.07;;;;;;;;;;5054442;28;20017;-64
2022/03/15 00:41:12;;;;;;;12.18;6.63;;;;;;;;;;5054467;28;20029;-66
2022/03/15 00:43:38;;;;;;;11.82;7.00;;;;;;;;;;5054244;28;20075;-61
2022/03/15 00:46:04;;;;;;;13.35;6.22;;;;;;;;;;5054315;28;20025;-62
2022/03/15 00:48:30;;;;;;;12.20;6.35;;;;;;;;;;5054314;28;20025;-62
2022/03/15 00:50:56;;;;;;;9.20;6.25;;;;;;;;;;5053944;28;20515;-61
2022/03/15 00:53:22;;;;;;;12.45;6.97;;;;;;;;;;5053854;28;20361;-62
2022/03/15 00:55:48;;;;;;;11.40;6.75;;;;;;;;;;5053044;28;20064;-61
2022/03/15 00:58:14;;;;;;;10.85;6.97;;;;;;;;;;5052588;28;20021;-62
2022/03/15 01:00:44;;;;;;;10.63;6.50;;;;;;;;;;5043795;28;20036;-61
2022/03/15 01:03:10;;;;;;;11.40;6.53;;;;;;;;;;5066159;28;20027;-61
2022/03/15 01:05:37;;;;;;;11.02;7.03;;;;;;;;;;5048944;28;20107;-64
2022/03/15 01:08:03;;;;;;;11.57;6.80;;;;;;;;;;5033124;28;20029;-61
2022/03/15 01:10:29;;;;;;;12.27;6.78;;;;;;;;;;5032704;28;20018;-63
2022/03/15 01:12:55;;;;;;;11.93;6.63;;;;;;;;;;5032982;28;20100;-62
2022/03/15 01:15:24;;;;;;;12.07;7.03;;;;;;;;;;5032687;28;20107;-66
2022/03/15 01:17:50;;;;;;;11.05;6.20;;;;;;;;;;5042358;28;20497;-68
2022/03/15 01:20:17;;;;;;;12.32;6.28;;;;;;;;;;5032371;28;20026;-68
2022/03/15 01:22:43;;;;;;;12.70;6.78;;;;;;;;;;5031982;28;20024;-67
2022/03/15 01:25:09;;;;;;;12.45;6.85;;;;;;;;;;5032058;28;20029;-63
2022/03/15 01:27:36;;;;;;;11.10;6.10;;;;;;;;;;5031640;28;20045;-67
2022/03/15 01:30:03;;;;;;;11.45;6.75;;;;;;;;;;5031826;28;20108;-66
2022/03/15 01:32:29;;;;;;;10.73;6.30;;;;;;;;;;5031901;28;20017;-63
2022/03/15 01:34:55;;;;;;;9.85;6.43;;;;;;;;;;5048158;28;20033;-66
2022/03/15 01:37:21;;;;;;;14.40;7.60;;;;;;;;;;5032960;28;20018;-65
2022/03/15 01:39:47;;;;;;;10.82;7.28;;;;;;;;;;5032243;28;20024;-64
2022/03/15 01:42:13;;;;;;;9.32;5.78;;;;;;;;;;5047366;28;20402;-66
2022/03/15 01:44:45;;;;;;;12.15;6.95;;;;;;;;;;5032392;28;20025;-67
2022/03/15 01:47:11;;;;;;;12.97;7.37;;;;;;;;;;5032376;28;20107;-67
2022/03/15 01:49:37;;;;;;;12.63;7.18;;;;;;;;;;5032302;28;20272;-68
2022/03/15 01:52:03;;;;;;;12.98;7.45;;;;;;;;;;5032538;28;20615;-68
2022/03/15 01:54:30;;;;;;;13.32;7.43;;;;;;;;;;5032436;28;20052;-65
2022/03/15 01:56:56;;;;;;;12.27;7.70;;;;;;;;;;5032509;28;20448;-63
2022/03/15 01:59:22;;;;;;;11.18;6.82;;;;;;;;;;5032596;28;20021;-64
2022/03/15 02:01:48;;;;;;;12.30;7.25;;;;;;;;;;5032405;28;20427;-63
2022/03/15 02:04:15;;;;;;;13.10;7.97;;;;;;;;;;5032256;28;20048;-62
2022/03/15 02:06:42;;;;;;;12.75;7.07;;;;;;;;;;5032207;28;20515;-62
2022/03/15 02:09:15;;;;;;;11.55;7.07;;;;;;;;;;5046270;28;20029;-62
2022/03/15 02:11:45;;;;;;;14.95;7.03;;;;;;;;;;5051878;28;20032;-62
2022/03/15 02:14:11;;;;;;;12.55;6.70;;;;;;;;;;5051386;28;20017;-63
2022/03/15 02:16:37;;;;;;;12.45;7.18;;;;;;;;;;5051382;28;20059;-63
2022/03/15 02:19:04;;;;;;;11.07;6.47;;;;;;;;;;5052003;28;20028;-63
2022/03/15 02:21:30;;;;;;;13.38;7.07;;;;;;;;;;5051898;28;20021;-65
2022/03/15 02:23:56;;;;;;;12.23;7.53;;;;;;;;;;5051897;28;20028;-67
2022/03/15 02:26:23;;;;;;;11.18;7.28;;;;;;;;;;5051856;28;20025;-65
2022/03/15 02:28:49;;;;;;;11.45;6.70;;;;;;;;;;5051962;28;20024;-67
2022/03/15 02:31:15;;;;;;;11.82;6.47;;;;;;;;;;5051897;28;20032;-63
2022/03/15 02:33:41;;;;;;;11.95;6.93;;;;;;;;;;5051630;28;20108;-65
2022/03/15 02:36:07;;;;;;;12.98;7.28;;;;;;;;;;5051610;28;20044;-63
2022/03/15 02:38:33;;;;;;;12.73;7.90;;;;;;;;;;5051678;28;20052;-65
2022/03/15 02:41:00;;;;;;;11.90;7.45;;;;;;;;;;5050812;28;20052;-62
2022/03/15 02:43:26;;;;;;;10.48;6.93;;;;;;;;;;5051502;28;20581;-64
2022/03/15 02:45:52;;;;;;;11.88;7.57;;;;;;;;;;5051681;28;20048;-67
2022/03/15 02:48:18;;;;;;;15.02;8.48;;;;;;;;;;5067154;28;20116;-63
2022/03/15 02:50:44;;;;;;;13.00;7.63;;;;;;;;;;5051294;28;20075;-63
2022/03/15 02:53:10;;;;;;;12.35;7.18;;;;;;;;;;5051243;28;20518;-63
2022/03/15 02:55:36;;;;;;;10.73;7.00;;;;;;;;;;5036263;28;20036;-63
2022/03/15 02:58:02;;;;;;;12.63;7.75;;;;;;;;;;5046655;28;20082;-63
2022/03/15 03:00:28;;;;;;;12.50;7.70;;;;;;;;;;5031409;28;20029;-64
2022/03/15 03:02:57;;;;;;;12.88;7.80;;;;;;;;;;5031516;28;20072;-66
2022/03/15 03:05:23;;;;;;;16.08;7.75;;;;;;;;;;5046824;28;20028;-68
2022/03/15 03:07:50;;;;;;;11.55;6.82;;;;;;;;;;5031293;28;20025;-62
2022/03/15 03:10:16;;;;;;;11.63;7.63;;;;;;;;;;5031617;28;20049;-62
2022/03/15 03:12:48;;;;;;;12.60;7.15;;;;;;;;;;5046941;28;20043;-62
2022/03/15 03:15:15;;;;;;;12.88;8.20;;;;;;;;;;5031489;28;20117;-62
2022/03/15 03:17:41;;;;;;;13.07;8.05;;;;;;;;;;5031212;28;20017;-63
2022/03/15 03:20:12;;;;;;;11.95;7.03;;;;;;;;;;5031280;28;20060;-62
2022/03/15 03:22:39;;;;;;;13.07;7.85;;;;;;;;;;5046441;28;20014;-61
2022/03/15 03:25:06;;;;;;;13.30;8.32;;;;;;;;;;5031463;28;20030;-61
2022/03/15 03:27:32;;;;;;;12.90;7.80;;;;;;;;;;5031219;28;20449;-67
2022/03/15 03:29:58;;;;;;;16.38;8.32;;;;;;;;;;5030918;28;20079;-63
2022/03/15 03:32:25;;;;;;;13.73;8.40;;;;;;;;;;5031383;28;20115;-62
2022/03/15 03:34:52;;;;;;;12.90;8.35;;;;;;;;;;5031165;28;20034;-62
2022/03/15 03:37:18;;;;;;;13.32;8.25;;;;;;;;;;5031510;28;20523;-68
2022/03/15 03:39:44;;;;;;;12.85;8.07;;;;;;;;;;5031330;28;20152;-66
2022/03/15 03:42:11;;;;;;;13.45;7.65;;;;;;;;;;5031223;28;20408;-67
2022/03/15 03:44:37;;;;;;;13.98;7.85;;;;;;;;;;5030978;28;20028;-63
2022/03/15 03:47:03;;;;;;;11.00;7.55;;;;;;;;;;5031129;28;20026;-63
2022/03/15 03:49:30;;;;;;;12.23;7.55;;;;;;;;;;5046380;28;20393;-65
2022/03/15 03:51:57;;;;;;;12.43;8.43;;;;;;;;;;5033451;28;20029;-61
2022/03/15 03:54:24;;;;;;;13.00;7.53;;;;;;;;;;5039499;28;20059;-64
2022/03/15 03:56:50;;;;;;;11.40;7.13;;;;;;;;;;5054227;28;20107;-63
2022/03/15 03:59:17;;;;;;;12.30;7.15;;;;;;;;;;5054048;28;20500;-64
2022/03/15 04:01:43;;;;;;;13.00;8.18;;;;;;;;;;5054290;28;20119;-62
2022/03/15 04:04:10;;;;;;;13.02;8.05;;;;;;;;;;5054295;28;20028;-64
2022/03/15 04:06:38;;;;;;;12.35;8.07;;;;;;;;;;5054576;28;20471;-67
2022/03/15 04:09:04;;;;;;;13.02;7.90;;;;;;;;;;5054507;28;20021;-65
2022/03/15 04:11:31;;;;;;;12.95;7.93;;;;;;;;;;5054239;28;20522;-67
2022/03/15 04:13:59;;;;;;;12.00;7.53;;;;;;;;;;5054068;28;20052;-67
2022/03/15 04:16:25;;;;;;;14.55;8.30;;;;;;;;;;5053975;28;20033;-66
2022/03/15 04:18:52;;;;;;;11.88;7.28;;;;;;;;;;5069622;28;20116;-65
2022/03/15 04:21:18;;;;;;;14.80;8.70;;;;;;;;;;5054094;28;20029;-65
2022/03/15 04:23:47;;;;;;;13.52;7.97;;;;;;;;;;5069827;28;20027;-68
2022/03/15 04:26:14;;;;;;;12.00;7.57;;;;;;;;;;5054050;28;20021;-65
2022/03/15 04:28:40;;;;;;;11.43;7.55;;;;;;;;;;5053665;28;20025;-61
2022/03/15 04:31:06;;;;;;;11.70;7.43;;;;;;;;;;5054072;28;20021;-62
2022/03/15 04:33:32;;;;;;;13.35;7.63;;;;;;;;;;5053583;28;20107;-61
2022/03/15 04:35:58;;;;;;;14.13;7.88;;;;;;;;;;5053863;28;20037;-61
2022/03/15 04:38:24;;;;;;;11.15;7.35;;;;;;;;;;5069160;28;20441;-62
2022/03/15 04:40:50;;;;;;;11.35;7.53;;;;;;;;;;5053812;28;20017;-64
2022/03/15 04:43:16;;;;;;;12.95;7.40;;;;;;;;;;5053308;28;20029;-62
2022/03/15 04:45:42;;;;;;;11.18;7.97;;;;;;;;;;5053577;28;20036;-62
2022/03/15 04:48:08;;;;;;;12.73;7.97;;;;;;;;;;5052972;28;20032;-63
2022/03/15 04:50:34;;;;;;;13.07;8.50;;;;;;;;;;5053106;28;20029;-63
2022/03/15 04:53:00;;;;;;;12.40;8.15;;;;;;;;;;5053086;28;20020;-62
2022/03/15 04:55:26;;;;;;;10.93;7.03;;;;;;;;;;5037967;28;20034;-62
2022/03/15 04:57:52;;;;;;;11.25;7.90;;;;;;;;;;5032883;28;20046;-65
2022/03/15 05:00:19;;;;;;;13.70;7.72;;;;;;;;;;5032909;28;20493;-62
2022/03/15 05:02:45;;;;;;;14.65;7.30;;;;;;;;;;5032472;28;20033;-65
2022/03/15 05:05:14;;;;;;;14.60;8.23;;;;;;;;;;5032950;28;20025;-63
2022/03/15 05:07:40;;;;;;;10.75;6.50;;;;;;;;;;5033399;28;20022;-64
2022/03/15 05:12:51;;;;;;;12.90;7.78;;;;;;;;;;5033071;28;20044;-64
2022/03/15 05:15:18;;;;;;;13.32;7.90;;;;;;;;;;5033059;28;20037;-63
2022/03/15 05:17:44;;;;;;;10.80;7.07;;;;;;;;;;5042798;28;20056;-67
2022/03/15 05:20:10;;;;;;;12.68;7.28;;;;;;;;;;5053153;28;20032;-63
2022/03/15 05:22:36;;;;;;;11.57;7.75;;;;;;;;;;5053250;28;20147;-67
2022/03/15 05:25:03;;;;;;;12.30;6.68;;;;;;;;;;5053284;28;20656;-64
2022/03/15 05:27:32;;;;;;;13.57;7.68;;;;;;;;;;5053099;28;20418;-63
2022/03/15 05:29:59;;;;;;;11.23;7.10;;;;;;;;;;5052751;28;20028;-64
2022/03/15 05:32:25;;;;;;;12.38;7.50;;;;;;;;;;5052994;28;20017;-64
2022/03/15 05:34:51;;;;;;;14.30;7.53;;;;;;;;;;5052964;28;20090;-65
2022/03/15 05:37:17;;;;;;;11.95;7.53;;;;;;;;;;5052970;28;20032;-62
2022/03/15 05:39:43;;;;;;;11.73;7.35;;;;;;;;;;5052671;28;20059;-68
2022/03/15 05:42:12;;;;;;;12.88;7.57;;;;;;;;;;5052772;28;20021;-62
2022/03/15 05:44:38;;;;;;;11.32;7.60;;;;;;;;;;5052495;28;20017;-62
2022/03/15 05:47:05;;;;;;;12.02;7.38;;;;;;;;;;5052153;28;20060;-65
2022/03/15 05:49:31;;;;;;;10.93;6.80;;;;;;;;;;5051980;28;20021;-66
2022/03/15 05:51:57;;;;;;;10.30;7.10;;;;;;;;;;5052151;28;20021;-64
2022/03/15 05:54:23;;;;;;;10.90;6.95;;;;;;;;;;5047561;28;20524;-62
2022/03/15 05:56:49;;;;;;;10.80;6.95;;;;;;;;;;5032175;28;20056;-61
2022/03/15 05:59:15;;;;;;;11.18;6.68;;;;;;;;;;5032012;28;20160;-64
2022/03/15 06:01:41;;;;;;;12.88;6.85;;;;;;;;;;5031832;28;20053;-62
2022/03/15 06:04:09;;;;;;;12.27;7.75;;;;;;;;;;5031768;28;20115;-61
2022/03/15 06:06:35;;;;;;;10.20;6.47;;;;;;;;;;5031823;28;20032;-62
2022/03/15 06:09:01;;;;;;;14.02;7.50;;;;;;;;;;5031740;28;20477;-61
2022/03/15 06:11:28;;;;;;;9.48;6.07;;;;;;;;;;5047050;28;20029;-62
2022/03/15 06:13:54;;;;;;;10.50;6.43;;;;;;;;;;5030973;28;20556;-64
2022/03/15 06:16:20;;;;;;;10.52;6.70;;;;;;;;;;5030410;28;20042;-61
2022/03/15 06:18:46;;;;;;;13.25;7.15;;;;;;;;;;5030147;28;20036;-63
2022/03/15 06:21:12;;;;;;;10.93;6.80;;;;;;;;;;5031755;28;20032;-63
2022/03/15 06:23:38;;;;;;;11.18;6.45;;;;;;;;;;5031525;28;20057;-63
2022/03/15 06:26:04;;;;;;;10.02;6.38;;;;;;;;;;5031642;28;20063;-64
2022/03/15 06:28:30;;;;;;;14.95;6.60;;;;;;;;;;5031934;28;20022;-63
2022/03/15 06:30:57;;;;;;;12.85;6.60;;;;;;;;;;5031380;28;20048;-65
2022/03/15 06:33:23;;;;;;;9.35;5.82;;;;;;;;;;5031631;28;20029;-62
2022/03/15 06:35:49;;;;;;;12.45;6.72;;;;;;;;;;5030992;28;20113;-61
2022/03/15 06:38:16;;;;;;;11.27;6.82;;;;;;;;;;5030670;28;20508;-67
2022/03/15 06:40:42;;;;;;;9.70;6.35;;;;;;;;;;5030077;28;20029;-61
2022/03/15 06:43:12;;;;;;;11.18;6.47;;;;;;;;;;5030666;28;20025;-60
2022/03/15 06:45:38;;;;;;;11.32;6.18;;;;;;;;;;5031088;28;20022;-62
2022/03/15 06:48:05;;;;;;;13.35;6.90;;;;;;;;;;5031967;28;20029;-66
2022/03/15 06:50:31;;;;;;;11.02;6.38;;;;;;;;;;5031896;28;20065;-61
2022/03/15 06:52:57;;;;;;;11.60;6.63;;;;;;;;;;5031963;28;20021;-67
2022/03/15 06:55:23;;;;;;;10.48;7.00;;;;;;;;;;5031913;28;20033;-67
2022/03/15 06:57:49;;;;;;;13.20;7.20;;;;;;;;;;5031798;28;20049;-63
2022/03/15 07:00:15;;;;;;;12.43;7.47;;;;;;;;;;5031734;28;20052;-70
2022/03/15 07:02:41;;;;;;;15.40;7.05;;;;;;;;;;5031528;28;20017;-61
2022/03/15 07:05:08;;;;;;;15.80;7.38;;;;;;;;;;5031630;28;20038;-67
2022/03/15 07:07:34;;;;;;;11.48;7.13;;;;;;;;;;5031636;28;20429;-62
2022/03/15 07:10:05;;;;;;;12.48;7.68;;;;;;;;;;5031516;28;20048;-62
2022/03/15 07:12:31;;;;;;;17.35;7.90;;;;;;;;;;5031628;28;20026;-66
2022/03/15 07:14:57;;;;;;;14.07;8.02;;;;;;;;;;5036092;28;20036;-62
2022/03/15 07:17:23;;;;;;;13.98;8.13;;;;;;;;;;5051315;28;20029;-64
2022/03/15 07:19:50;;;;;;;16.98;8.32;;;;;;;;;;5051418;28;20071;-67
2022/03/15 07:22:16;;;;;;;14.57;8.75;;;;;;;;;;5051076;28;20095;-66
2022/03/15 07:24:42;;;;;;;15.35;8.68;;;;;;;;;;5051577;28;20029;-68
2022/03/15 07:27:08;;;;;;;15.27;7.88;;;;;;;;;;5054357;28;20400;-61
2022/03/15 07:29:34;;;;;;;11.07;7.35;;;;;;;;;;5046946;28;20029;-63
2022/03/15 07:32:01;;;;;;;13.05;7.68;;;;;;;;;;5050852;28;20021;-67
2022/03/15 07:34:27;;;;;;;18.15;7.85;;;;;;;;;;5052208;28;20029;-61
2022/03/15 07:36:53;;;;;;;17.58;9.38;;;;;;;;;;5038083;28;20036;-61
2022/03/15 07:39:19;;;;;;;16.20;8.48;;;;;;;;;;5033874;28;20026;-64
2022/03/15 07:41:46;;;;;;;14.25;8.60;;;;;;;;;;5034985;28;20487;-69
2022/03/15 07:44:12;;;;;;;14.43;9.00;;;;;;;;;;5033191;28;20017;-62
2022/03/15 07:46:40;;;;;;;17.70;9.60;;;;;;;;;;5037977;28;20043;-65
2022/03/15 07:49:07;;;;;;;17.73;9.57;;;;;;;;;;5055171;28;20047;-61
2022/03/15 07:51:34;;;;;;;13.57;7.78;;;;;;;;;;5055003;28;20480;-61
2022/03/15 07:54:00;;;;;;;14.57;9.23;;;;;;;;;;5054735;28;20029;-65
2022/03/15 07:56:26;;;;;;;15.38;10.15;;;;;;;;;;5054260;28;20053;-62
2022/03/15 07:58:52;;;;;;;14.98;8.23;;;;;;;;;;5054719;28;20082;-65
2022/03/15 08:01:19;;;;;;;15.98;10.00;;;;;;;;;;5054850;28;20029;-67
2022/03/15 08:03:45;;;;;;;16.73;10.35;;;;;;;;;;5054986;28;20056;-70
2022/03/15 08:06:11;;;;;;;15.35;10.05;;;;;;;;;;5054514;28;20029;-69
2022/03/15 08:08:37;;;;;;;17.50;11.00;;;;;;;;;;5054674;28;20032;-69
2022/03/15 08:11:06;;;;;;;15.15;9.25;;;;;;;;;;5054637;28;20028;-62
2022/03/15 08:13:34;;;;;;;14.88;9.52;;;;;;;;;;5054281;28;20029;-68
2022/03/15 08:16:00;;;;;;;16.70;10.93;;;;;;;;;;5052862;28;20124;-69
2022/03/15 08:18:26;;;;;;;15.18;9.18;;;;;;;;;;5054143;28;20022;-67
2022/03/15 08:20:54;;;;;;;16.80;10.25;;;;;;;;;;5053991;28;20511;-61
2022/03/15 08:23:21;;;;;;;18.15;10.77;;;;;;;;;;5053808;28;20028;-65
2022/03/15 08:25:47;;;;;;;15.45;10.25;;;;;;;;;;5052437;28;20392;-62
2022/03/15 08:28:14;;;;;;;15.93;9.75;;;;;;;;;;5053728;28;20021;-61
2022/03/15 08:30:40;;;;;;;15.20;9.48;;;;;;;;;;5054034;28;20048;-67
2022/03/15 08:33:06;;;;;;;15.18;9.93;;;;;;;;;;5054064;28;20119;-60
2022/03/15 08:35:32;;;;;;;14.10;9.35;;;;;;;;;;5054161;28;20032;-67
2022/03/15 08:37:58;;;;;;;14.98;10.48;;;;;;;;;;5053322;28;20013;-67
2022/03/15 08:40:24;;;;;;;16.65;10.95;;;;;;;;;;5054277;28;20498;-68
2022/03/15 08:42:50;;;;;;;15.60;10.50;;;;;;;;;;5053989;28;20025;-69
2022/03/15 08:45:16;;;;;;;18.13;11.27;;;;;;;;;;5053817;28;20094;-68
2022/03/15 08:47:42;;;;;;;19.30;10.63;;;;;;;;;;5053998;28;20017;-68
2022/03/15 08:50:09;;;;;;;17.10;11.35;;;;;;;;;;5053983;28;20032;-68
2022/03/15 08:52:36;;;;;;;20.52;10.05;;;;;;;;;;5053657;28;20021;-60
2022/03/15 08:55:02;;;;;;;14.93;9.88;;;;;;;;;;5053690;28;20054;-68
2022/03/15 08:57:29;;;;;;;15.40;10.15;;;;;;;;;;5054004;28;20040;-67
2022/03/15 08:59:55;;;;;;;16.65;10.68;;;;;;;;;;5054030;28;20021;-66
2022/03/15 09:02:22;;;;;;;17.02;9.68;;;;;;;;;;5053971;28;20052;-64
2022/03/15 09:04:48;;;;;;;15.50;10.18;;;;;;;;;;5052595;28;20384;-67
2022/03/15 09:07:14;;;;;;;14.63;9.38;;;;;;;;;;5053722;28;20033;-66
2022/03/15 09:09:40;;;;;;;16.17;10.55;;;;;;;;;;5053570;28;20056;-64
2022/03/15 09:12:06;;;;;;;15.63;10.65;;;;;;;;;;5053552;28;20057;-64
2022/03/15 09:14:33;;;;;;;15.57;10.43;;;;;;;;;;5052349;28;20033;-66
2022/03/15 09:17:00;;;;;;;14.93;9.20;;;;;;;;;;5048155;28;20033;-61
2022/03/15 09:19:26;;;;;;;13.38;8.82;;;;;;;;;;5053587;28;20045;-64
2022/03/15 09:21:52;;;;;;;38.45;11.70;;;;;;;;;;5053207;28;20025;-66
2022/03/15 09:24:18;;;;;;;24.65;10.55;;;;;;;;;;5053166;28;20104;-66
2022/03/15 09:26:44;;;;;;;17.08;9.40;;;;;;;;;;5043531;28;20025;-63
2022/03/15 09:29:12;;;;;;;19.88;9.23;;;;;;;;;;5051416;28;20047;-61
2022/03/15 09:31:38;;;;;;;16.27;8.68;;;;;;;;;;5052812;28;20016;-62
2022/03/15 09:34:04;;;;;;;17.23;9.18;;;;;;;;;;5053044;28;20080;-66
2022/03/15 09:36:30;;;;;;;16.50;9.43;;;;;;;;;;5052715;28;20498;-67
2022/03/15 09:38:57;;;;;;;28.20;9.25;;;;;;;;;;5052799;28;20047;-62
2022/03/15 09:41:25;;;;;;;15.73;7.95;;;;;;;;;;5053085;28;20064;-65
2022/03/15 09:43:53;;;;;;;15.85;8.35;;;;;;;;;;5047340;28;20464;-67
2022/03/15 09:46:21;;;;;;;14.65;8.68;;;;;;;;;;5032972;28;20452;-71
2022/03/15 09:48:51;;;;;;;17.40;8.70;;;;;;;;;;5031679;28;20041;-67
2022/03/15 09:51:18;;;;;;;14.60;8.55;;;;;;;;;;5032920;28;20022;-64
2022/03/15 09:53:46;;;;;;;13.68;7.85;;;;;;;;;;5032979;28;20111;-69
2022/03/15 09:56:15;;;;;;;16.95;9.73;;;;;;;;;;5031468;28;20053;-64
2022/03/15 09:58:41;;;;;;;19.17;9.75;;;;;;;;;;5032426;28;20056;-61
2022/03/15 10:01:08;;;;;;;14.48;8.73;;;;;;;;;;5030770;28;20022;-66
2022/03/15 10:03:35;;;;;;;13.90;8.93;;;;;;;;;;5031940;28;20022;-63
2022/03/15 10:06:01;;;;;;;16.38;8.50;;;;;;;;;;5031978;28;20061;-64
2022/03/15 10:08:27;;;;;;;14.23;8.98;;;;;;;;;;5032073;28;20108;-65
2022/03/15 10:10:54;;;;;;;15.30;8.00;;;;;;;;;;5032082;28;20671;-60
2022/03/15 10:13:20;;;;;;;13.15;8.10;;;;;;;;;;5030565;28;20512;-63
2022/03/15 10:15:52;;;;;;;17.50;9.15;;;;;;;;;;5031902;28;20120;-62
2022/03/15 10:18:19;;;;;;;14.17;7.73;;;;;;;;;;5032120;28;20018;-61
2022/03/15 10:20:46;;;;;;;12.82;7.15;;;;;;;;;;5032009;28;20300;-64
2022/03/15 10:23:14;;;;;;;12.55;7.05;;;;;;;;;;5031900;28;20025;-60
2022/03/15 10:25:48;;;;;;;13.02;7.40;;;;;;;;;;5031877;28;20029;-64
2022/03/15 10:28:14;;;;;;;15.57;8.00;;;;;;;;;;5031570;28;20131;-63
2022/03/15 10:30:41;;;;;;;14.52;7.78;;;;;;;;;;5031673;28;20032;-61
2022/03/15 10:33:08;;;;;;;13.60;7.13;;;;;;;;;;5031709;28;20049;-61
2022/03/15 10:35:38;;;;;;;13.10;7.38;;;;;;;;;;5031610;28;20531;-61
2022/03/15 10:38:06;;;;;;;14.25;7.70;;;;;;;;;;5031740;28;20476;-61
2022/03/15 10:40:40;;;;;;;11.57;7.18;;;;;;;;;;5031788;28;20044;-61
2022/03/15 10:43:06;;;;;;;11.55;6.28;;;;;;;;;;5031592;28;20025;-61
2022/03/15 10:45:34;;;;;;;11.85;7.10;;;;;;;;;;5031450;28;20028;-61
2022/03/15 10:48:01;;;;;;;10.20;6.38;;;;;;;;;;5031399;28;20079;-61
2022/03/15 10:50:29;;;;;;;10.90;6.10;;;;;;;;;;5031422;28;20048;-61
2022/03/15 10:52:56;;;;;;;13.10;6.10;;;;;;;;;;5031156;28;20045;-62
2022/03/15 10:55:28;;;;;;;10.93;6.50;;;;;;;;;;5031232;28;20029;-62
2022/03/15 10:57:57;;;;;;;9.93;5.95;;;;;;;;;;5031277;28;20092;-61
2022/03/15 11:00:36;;;;;;;11.43;6.47;;;;;;;;;;5030814;28;20100;-61
2022/03/15 11:03:03;;;;;;;13.95;6.88;;;;;;;;;;5031015;28;20022;-63
2022/03/15 11:05:30;;;;;;;11.55;6.28;;;;;;;;;;5031286;28;20018;-62
2022/03/15 11:07:57;;;;;;;9.15;5.97;;;;;;;;;;5031244;28;20041;-63
2022/03/15 11:10:24;;;;;;;9.60;5.63;;;;;;;;;;5031199;28;20029;-64
2022/03/15 11:12:54;;;;;;;11.70;5.53;;;;;;;;;;5031369;28;20017;-62
2022/03/15 11:15:27;;;;;;;9.55;5.70;;;;;;;;;;5031223;28;20034;-63
2022/03/15 11:17:53;;;;;;;10.52;5.82;;;;;;;;;;5031349;28;20017;-67
2022/03/15 11:20:20;;;;;;;9.65;5.50;;;;;;;;;;5031122;28;20405;-63
2022/03/15 11:22:47;;;;;;;10.95;5.38;;;;;;;;;;5031189;28;20108;-63
2022/03/15 11:25:17;;;;;;;10.60;6.05;;;;;;;;;;5031730;28;20121;-65
2022/03/15 11:27:45;;;;;;;11.93;5.72;;;;;;;;;;5031399;28;20056;-63
2022/03/15 11:30:12;;;;;;;10.38;5.82;;;;;;;;;;5031294;28;20025;-68
2022/03/15 11:32:39;;;;;;;8.43;5.20;;;;;;;;;;5031218;28;20036;-63
2022/03/15 11:35:08;;;;;;;9.10;5.72;;;;;;;;;;5031313;28;20037;-64
2022/03/15 11:37:35;;;;;;;8.43;4.97;;;;;;;;;;5031602;28;20026;-63
2022/03/15 11:40:04;;;;;;;8.98;5.18;;;;;;;;;;5031141;28;20021;-68
2022/03/15 11:42:32;;;;;;;10.25;5.07;;;;;;;;;;5031129;28;20108;-63
2022/03/15 11:44:58;;;;;;;8.73;5.13;;;;;;;;;;5031177;28;20385;-62
2022/03/15 11:47:24;;;;;;;8.88;5.50;;;;;;;;;;5046590;28;20445;-63
2022/03/15 11:49:59;;;;;;;10.90;4.85;;;;;;;;;;5030992;28;20087;-63
2022/03/15 11:53:05;;;;;;;8.13;4.55;;;;;;;;;;5030835;28;20057;-64
2022/03/15 11:55:50;;;;;;;10.52;4.90;;;;;;;;;;5008463;28;20038;-63
2022/03/15 11:58:24;;;;;;;7.80;4.85;;;;;;;;;;5008670;28;20038;-66
2022/03/15 12:00:50;;;;;;;8.55;4.55;;;;;;;;;;5023444;28;20033;-69
2022/03/15 12:03:21;;;;;;;7.50;3.90;;;;;;;;;;5030922;28;20025;-63
2022/03/15 12:05:51;;;;;;;8.05;3.97;;;;;;;;;;5046408;28;20417;-63
2022/03/15 12:08:23;;;;;;;6.97;4.47;;;;;;;;;;5046038;28;20026;-64
2022/03/15 12:10:57;;;;;;;10.82;4.10;;;;;;;;;;5030654;28;20603;-63
2022/03/15 12:13:47;;;;;;;8.77;4.75;;;;;;;;;;5032124;28;20057;-66
2022/03/15 12:16:13;;;;;;;7.45;4.13;;;;;;;;;;5034113;28;20120;-66
2022/03/15 12:18:48;;;;;;;7.85;4.65;;;;;;;;;;5034368;28;20017;-63
2022/03/15 12:21:14;;;;;;;9.40;4.57;;;;;;;;;;5049388;28;20029;-63
2022/03/15 12:23:47;;;;;;;9.50;5.00;;;;;;;;;;5034045;28;20022;-66
2022/03/15 12:26:24;;;;;;;7.13;4.15;;;;;;;;;;5049305;28;20034;-64
2022/03/15 12:28:56;;;;;;;7.85;4.18;;;;;;;;;;5033972;28;20072;-62
2022/03/15 12:31:33;;;;;;;7.53;4.60;;;;;;;;;;5033966;28;20079;-67
2022/03/15 12:34:03;;;;;;;7.53;4.60;;;;;;;;;;5033916;28;20076;-62
2022/03/15 12:36:47;;;;;;;7.85;4.22;;;;;;;;;;5033880;28;20033;-63
2022/03/15 12:39:15;;;;;;;8.13;5.00;;;;;;;;;;5033844;28;20017;-62
2022/03/15 12:41:42;;;;;;;8.07;4.40;;;;;;;;;;5033736;28;20026;-62
2022/03/15 12:44:09;;;;;;;6.88;4.40;;;;;;;;;;5033552;28;20021;-63
2022/03/15 12:46:38;;;;;;;7.72;4.30;;;;;;;;;;5033662;28;20025;-64
2022/03/15 12:49:08;;;;;;;6.50;3.72;;;;;;;;;;5033677;28;20029;-63
2022/03/15 12:51:38;;;;;;;7.30;4.35;;;;;;;;;;5033407;28;20030;-62
2022/03/15 12:54:06;;;;;;;8.52;4.72;;;;;;;;;;5033631;28;20021;-65
2022/03/15 12:56:32;;;;;;;7.95;4.72;;;;;;;;;;5033231;28;20622;-63
2022/03/15 12:58:59;;;;;;;5.93;3.90;;;;;;;;;;5033481;28;20026;-63
2022/03/15 13:01:26;;;;;;;7.30;4.57;;;;;;;;;;5033508;28;20026;-66
2022/03/15 13:03:52;;;;;;;9.63;4.40;;;;;;;;;;5033366;28;20021;-68
2022/03/15 13:06:19;;;;;;;6.25;3.90;;;;;;;;;;5033451;28;20013;-63
2022/03/15 13:09:11;;;;;;;8.20;4.70;;;;;;;;;;5033459;28;20548;-65
2022/03/15 13:11:48;;;;;;;7.40;4.37;;;;;;;;;;5032154;28;20041;-63
2022/03/15 13:14:14;;;;;;;7.85;4.07;;;;;;;;;;5033180;28;20266;-66
2022/03/15 13:16:47;;;;;;;6.95;3.95;;;;;;;;;;5033040;28;20033;-63
2022/03/15 13:19:13;;;;;;;6.90;3.70;;;;;;;;;;5033100;28;20028;-65
2022/03/15 13:21:39;;;;;;;7.43;4.43;;;;;;;;;;5032950;28;20538;-66
2022/03/15 13:24:10;;;;;;;7.18;4.32;;;;;;;;;;5032498;28;20395;-67
2022/03/15 13:26:39;;;;;;;10.15;4.00;;;;;;;;;;5037980;28;20035;-63
2022/03/15 13:29:07;;;;;;;6.20;4.00;;;;;;;;;;5050225;28;20090;-65
2022/03/15 13:31:35;;;;;;;7.82;4.93;;;;;;;;;;5048617;28;20086;-66
2022/03/15 13:34:02;;;;;;;6.30;3.90;;;;;;;;;;5051451;28;20054;-64
2022/03/15 13:36:31;;;;;;;8.30;3.83;;;;;;;;;;5049613;28;20060;-65
2022/03/15 13:38:59;;;;;;;6.80;4.15;;;;;;;;;;5050065;28;20047;-65
2022/03/15 13:41:26;;;;;;;9.02;4.10;;;;;;;;;;5051307;28;20009;-68
2022/03/15 13:43:54;;;;;;;6.93;4.18;;;;;;;;;;5048644;28;20094;-64
2022/03/15 13:46:21;;;;;;;8.25;4.65;;;;;;;;;;5051113;28;20038;-62
2022/03/15 13:48:49;;;;;;;7.88;4.40;;;;;;;;;;5051296;28;20104;-65
2022/03/15 13:51:35;;;;;;;14.52;4.63;;;;;;;;;;5051143;28;20025;-63
2022/03/15 13:54:10;;;;;;;6.75;4.20;;;;;;;;;;5049518;28;20380;-62
2022/03/15 13:56:47;;;;;;;6.65;4.00;;;;;;;;;;5051231;28;20051;-65
2022/03/15 13:59:15;;;;;;;10.93;5.45;;;;;;;;;;5051851;28;20017;-62
2022/03/15 14:01:42;;;;;;;8.50;4.10;;;;;;;;;;5051832;28;20029;-64
2022/03/15 14:04:10;;;;;;;8.55;4.40;;;;;;;;;;5051952;28;20017;-64
2022/03/15 14:06:39;;;;;;;10.38;4.80;;;;;;;;;;5052895;28;20013;-68
2022/03/15 14:09:05;;;;;;;11.05;4.45;;;;;;;;;;5050933;28;20025;-62
2022/03/15 14:11:40;;;;;;;9.70;4.60;;;;;;;;;;5051099;28;20021;-64
2022/03/15 14:14:10;;;;;;;11.02;4.30;;;;;;;;;;5051206;28;20072;-62
2022/03/15 14:16:39;;;;;;;11.70;4.80;;;;;;;;;;5050764;28;20048;-63
2022/03/15 14:19:09;;;;;;;8.23;4.32;;;;;;;;;;5051450;28;20017;-62
2022/03/15 14:21:36;;;;;;;13.30;5.20;;;;;;;;;;5051868;28;20040;-63
2022/03/15 14:24:03;;;;;;;10.55;3.92;;;;;;;;;;5051719;28;20016;-68
2022/03/15 14:26:33;;;;;;;7.57;4.07;;;;;;;;;;5051769;28;20036;-63
2022/03/15 14:29:00;;;;;;;7.90;3.95;;;;;;;;;;5051666;28;20499;-62
2022/03/15 14:31:28;;;;;;;7.72;4.05;;;;;;;;;;5051576;28;20021;-62
2022/03/15 14:34:00;;;;;;;8.45;4.35;;;;;;;;;;5051695;28;20028;-65
2022/03/15 14:36:32;;;;;;;8.20;4.70;;;;;;;;;;5050740;28;20029;-63